Time;durP1;ratioP1;P1;durP2;ratioP2;P2;SDS_P1;SDS_P2;PMS_P1;PMS_P2;Temp;Humidity;BMP_temperature;BMP_pressure;BME280_temperature;BME280_humidity;BME280_pressure;Samples;Min_cycle;Max_cycle;Signal;HPM_P1;HPM_P2
2024/01/31 00:02:22;;;;;;;;;21.33;20.67;;;;;;;;5077192;28;45300;-76
2024/01/31 00:04:47;;;;;;;;;21.00;19.67;;;;;;;;5078130;28;45534;-77
2024/01/31 00:07:13;;;;;;;;;21.00;19.33;;;;;;;;5079300;27;46278;-76
2024/01/31 00:09:38;;;;;;;;;16.67;16.67;;;;;;;;5079840;27;45260;-77
2024/01/31 00:12:03;;;;;;;;;19.33;18.33;;;;;;;;5080050;27;45493;-76
2024/01/31 00:14:28;;;;;;;;;20.00;20.00;;;;;;;;5081609;28;46869;-77
2024/01/31 00:16:53;;;;;;;;;21.33;21.33;;;;;;;;5080723;28;47071;-76
2024/01/31 00:19:19;;;;;;;;;20.33;20.33;;;;;;;;5082124;27;45322;-77
2024/01/31 00:21:44;;;;;;;;;29.00;25.00;;;;;;;;5082606;27;45558;-76
2024/01/31 00:24:12;;;;;;;;;26.67;25.00;;;;;;;;5081519;28;47352;-76
2024/01/31 00:26:37;;;;;;;;;23.67;23.00;;;;;;;;5082995;27;46127;-76
2024/01/31 00:29:02;;;;;;;;;22.67;22.00;;;;;;;;5082884;27;45272;-76
2024/01/31 00:31:28;;;;;;;;;26.00;22.67;;;;;;;;5082958;27;45296;-76
2024/01/31 00:33:54;;;;;;;;;26.67;25.67;;;;;;;;5081224;28;46289;-77
2024/01/31 00:36:19;;;;;;;;;24.67;23.33;;;;;;;;5082701;27;45336;-76
2024/01/31 00:38:44;;;;;;;;;26.67;24.67;;;;;;;;5081709;27;45501;-76
2024/01/31 00:41:09;;;;;;;;;24.00;23.67;;;;;;;;5081479;27;45368;-76
2024/01/31 00:43:35;;;;;;;;;26.67;24.67;;;;;;;;5082789;27;45222;-76
2024/01/31 00:46:04;;;;;;;;;23.00;22.00;;;;;;;;5081111;28;48120;-76
2024/01/31 00:48:29;;;;;;;;;26.33;25.67;;;;;;;;5082708;27;45378;-76
2024/01/31 00:50:54;;;;;;;;;23.33;23.33;;;;;;;;5082577;27;45273;-76
2024/01/31 00:53:19;;;;;;;;;24.33;24.33;;;;;;;;5080836;28;46196;-76
2024/01/31 00:55:44;;;;;;;;;28.33;24.67;;;;;;;;5081820;27;46010;-77
2024/01/31 00:58:10;;;;;;;;;25.33;23.33;;;;;;;;5065990;28;45497;-76
2024/01/31 01:00:35;;;;;;;;;27.00;25.00;;;;;;;;5062093;28;45548;-77
2024/01/31 01:03:00;;;;;;;;;24.67;21.67;;;;;;;;5060830;28;47108;-76
2024/01/31 01:05:25;;;;;;;;;24.33;24.33;;;;;;;;5062000;28;45385;-77
2024/01/31 01:07:50;;;;;;;;;26.00;23.33;;;;;;;;5062199;28;45446;-77
2024/01/31 01:10:16;;;;;;;;;22.00;21.67;;;;;;;;5062161;28;45843;-76
2024/01/31 01:12:42;;;;;;;;;31.67;31.33;;;;;;;;5062001;28;45261;-78
2024/01/31 01:15:08;;;;;;;;;26.00;23.67;;;;;;;;5060516;28;45467;-76
2024/01/31 01:17:33;;;;;;;;;21.67;20.33;;;;;;;;5061929;28;45377;-76
2024/01/31 01:19:58;;;;;;;;;27.67;27.67;;;;;;;;5061765;28;45374;-76
2024/01/31 01:22:23;;;;;;;;;24.67;23.33;;;;;;;;5061562;28;45587;-76
2024/01/31 01:24:49;;;;;;;;;26.33;24.33;;;;;;;;5061007;28;45336;-76
2024/01/31 01:27:14;;;;;;;;;27.67;26.33;;;;;;;;5060424;28;45844;-76
2024/01/31 01:29:39;;;;;;;;;29.67;29.33;;;;;;;;5061351;28;45272;-76
2024/01/31 01:32:04;;;;;;;;;29.67;26.67;;;;;;;;5061284;28;45395;-76
2024/01/31 01:34:29;;;;;;;;;29.67;28.67;;;;;;;;5061113;28;46443;-76
2024/01/31 01:36:55;;;;;;;;;30.67;29.33;;;;;;;;5061617;28;45351;-77
2024/01/31 01:39:20;;;;;;;;;32.33;30.00;;;;;;;;5061780;28;45471;-76
2024/01/31 01:41:48;;;;;;;;;30.00;28.67;;;;;;;;5061458;28;45153;-77
2024/01/31 01:44:14;;;;;;;;;30.67;28.67;;;;;;;;5061488;28;45407;-77
2024/01/31 01:46:39;;;;;;;;;30.67;29.33;;;;;;;;5060589;28;45533;-76
2024/01/31 01:49:05;;;;;;;;;30.67;26.33;;;;;;;;5058818;28;45411;-76
2024/01/31 01:51:30;;;;;;;;;38.67;33.00;;;;;;;;5059934;28;45614;-77
2024/01/31 01:53:55;;;;;;;;;31.67;31.33;;;;;;;;5060174;28;45672;-77
2024/01/31 01:56:21;;;;;;;;;32.33;26.67;;;;;;;;5059890;28;45363;-77
2024/01/31 01:58:50;;;;;;;;;33.00;31.67;;;;;;;;5080562;28;45315;-76
2024/01/31 02:01:16;;;;;;;;;31.67;30.33;;;;;;;;5078859;28;46320;-76
2024/01/31 02:03:42;;;;;;;;;31.00;30.67;;;;;;;;5079808;28;46931;-76
2024/01/31 02:06:07;;;;;;;;;32.67;32.00;;;;;;;;5080783;28;45308;-76
2024/01/31 02:08:32;;;;;;;;;36.67;32.33;;;;;;;;5080814;27;45277;-77
2024/01/31 02:10:58;;;;;;;;;35.67;32.00;;;;;;;;5081059;27;45189;-76
2024/01/31 02:13:23;;;;;;;;;43.33;34.33;;;;;;;;5081248;28;45215;-76
2024/01/31 02:15:55;;;;;;;;;37.50;34.50;;;;;;;;5079725;28;45771;-77
2024/01/31 02:18:21;;;;;;;;;34.67;33.67;;;;;;;;5081361;27;45329;-77
2024/01/31 02:20:49;;;;;;;;;33.00;32.33;;;;;;;;5080912;27;45309;-76
2024/01/31 02:23:15;;;;;;;;;33.50;31.00;;;;;;;;5080377;27;45961;-76
2024/01/31 02:25:40;;;;;;;;;35.67;33.00;;;;;;;;5079860;27;45397;-76
2024/01/31 02:28:05;;;;;;;;;39.00;35.75;;;;;;;;5079948;27;45279;-76
2024/01/31 02:30:31;;;;;;;;;39.25;33.25;;;;;;;;5080873;28;45487;-76
2024/01/31 02:32:56;;;;;;;;;38.50;35.00;;;;;;;;5080930;27;45286;-76
2024/01/31 02:35:22;;;;;;;;;43.75;37.50;;;;;;;;5079891;27;45267;-77
2024/01/31 02:37:47;;;;;;;;;46.50;38.25;;;;;;;;5081133;27;45292;-76
2024/01/31 02:40:12;;;;;;;;;43.75;37.25;;;;;;;;5080768;28;45291;-76
2024/01/31 02:42:37;;;;;;;;;37.00;34.00;;;;;;;;5080639;27;45628;-77
2024/01/31 02:45:03;;;;;;;;;49.50;40.75;;;;;;;;5079930;27;45298;-77
2024/01/31 02:47:28;;;;;;;;;42.00;38.00;;;;;;;;5079487;28;45373;-76
2024/01/31 02:49:53;;;;;;;;;40.50;36.25;;;;;;;;5080601;27;45370;-77
2024/01/31 02:52:19;;;;;;;;;40.75;35.50;;;;;;;;5079017;28;48294;-76
2024/01/31 02:54:44;;;;;;;;;47.00;38.75;;;;;;;;5080735;27;45481;-76
2024/01/31 02:57:09;;;;;;;;;41.00;36.50;;;;;;;;5073200;28;45501;-77
2024/01/31 02:59:34;;;;;;;;;38.00;34.00;;;;;;;;5057749;28;46276;-77
2024/01/31 03:01:59;;;;;;;;;32.33;29.33;;;;;;;;5059809;28;46350;-77
2024/01/31 03:04:24;;;;;;;;;39.00;36.00;;;;;;;;5059286;28;45493;-77
2024/01/31 03:06:50;;;;;;;;;41.00;36.00;;;;;;;;5060212;28;45268;-77
2024/01/31 03:09:15;;;;;;;;;44.25;38.25;;;;;;;;5060214;28;45290;-77
2024/01/31 03:11:40;;;;;;;;;42.75;36.25;;;;;;;;5059962;28;46052;-77
2024/01/31 03:14:05;;;;;;;;;42.75;38.00;;;;;;;;5060212;28;45260;-77
2024/01/31 03:16:31;;;;;;;;;37.50;35.25;;;;;;;;5060004;28;45343;-77
2024/01/31 03:18:58;;;;;;;;;41.33;35.67;;;;;;;;5058333;28;46377;-77
2024/01/31 03:21:23;;;;;;;;;44.67;36.67;;;;;;;;5058781;28;45278;-77
2024/01/31 03:23:48;;;;;;;;;44.00;36.75;;;;;;;;5056916;28;45462;-77
2024/01/31 03:26:13;;;;;;;;;34.33;31.33;;;;;;;;5058745;28;45370;-77
2024/01/31 03:28:38;;;;;;;;;31.00;29.33;;;;;;;;5060063;28;45504;-77
2024/01/31 03:31:04;;;;;;;;;38.67;35.67;;;;;;;;5059651;28;45367;-78
2024/01/31 03:33:29;;;;;;;;;32.67;27.33;;;;;;;;5059646;28;45303;-77
2024/01/31 03:35:54;;;;;;;;;36.33;32.33;;;;;;;;5059122;28;45240;-77
2024/01/31 03:38:19;;;;;;;;;37.00;33.00;;;;;;;;5059456;28;45465;-77
2024/01/31 03:40:44;;;;;;;;;36.00;33.33;;;;;;;;5058566;28;45423;-77
2024/01/31 03:43:09;;;;;;;;;38.25;36.00;;;;;;;;5059686;28;45378;-77
2024/01/31 03:45:35;;;;;;;;;42.50;37.00;;;;;;;;5059644;28;45453;-78
2024/01/31 03:48:00;;;;;;;;;43.50;37.00;;;;;;;;5057894;28;46221;-77
2024/01/31 03:50:26;;;;;;;;;44.75;37.25;;;;;;;;5059279;28;46028;-76
2024/01/31 03:52:52;;;;;;;;;38.75;36.00;;;;;;;;5059585;28;45308;-77
2024/01/31 03:55:17;;;;;;;;;29.00;28.00;;;;;;;;5059591;28;45460;-77
2024/01/31 03:57:42;;;;;;;;;28.33;26.67;;;;;;;;5069138;28;45292;-76
2024/01/31 04:00:09;;;;;;;;;37.33;33.00;;;;;;;;5078055;28;47328;-77
2024/01/31 04:02:35;;;;;;;;;34.33;28.67;;;;;;;;5079573;27;45340;-77
2024/01/31 04:05:00;;;;;;;;;35.33;33.00;;;;;;;;5079606;28;45434;-77
2024/01/31 04:07:27;;;;;;;;;27.00;25.00;;;;;;;;5078049;28;45889;-77
2024/01/31 04:09:52;;;;;;;;;32.33;27.67;;;;;;;;5078268;28;47319;-76
2024/01/31 04:12:17;;;;;;;;;36.33;31.33;;;;;;;;5078111;28;45290;-77
2024/01/31 04:14:42;;;;;;;;;29.00;28.33;;;;;;;;5079684;27;45670;-77
2024/01/31 04:17:08;;;;;;;;;29.67;28.67;;;;;;;;5079637;27;45289;-77
2024/01/31 04:19:33;;;;;;;;;28.67;26.67;;;;;;;;5078950;27;45905;-77
2024/01/31 04:21:58;;;;;;;;;28.33;28.33;;;;;;;;5079465;27;45346;-77
2024/01/31 04:24:23;;;;;;;;;30.67;28.00;;;;;;;;5079630;27;45604;-77
2024/01/31 04:26:48;;;;;;;;;36.00;32.00;;;;;;;;5079333;27;45735;-77
2024/01/31 04:29:13;;;;;;;;;32.00;28.67;;;;;;;;5079284;27;45657;-77
2024/01/31 04:31:39;;;;;;;;;27.00;26.67;;;;;;;;5078168;28;45227;-77
2024/01/31 04:34:04;;;;;;;;;32.67;30.33;;;;;;;;5078000;28;45351;-77
2024/01/31 04:36:30;;;;;;;;;28.00;26.67;;;;;;;;5079255;27;45421;-77
2024/01/31 04:38:55;;;;;;;;;28.00;25.33;;;;;;;;5077674;28;47514;-77
2024/01/31 04:41:20;;;;;;;;;22.67;22.67;;;;;;;;5079094;27;45264;-77
2024/01/31 04:43:46;;;;;;;;;31.33;28.67;;;;;;;;5078393;27;45333;-77
2024/01/31 04:46:12;;;;;;;;;28.67;26.00;;;;;;;;5078918;27;45404;-77
2024/01/31 04:48:37;;;;;;;;;27.67;26.00;;;;;;;;5079080;28;46320;-77
2024/01/31 04:51:03;;;;;;;;;30.00;28.67;;;;;;;;5078930;27;45463;-77
2024/01/31 04:53:28;;;;;;;;;32.00;30.33;;;;;;;;5076603;28;45337;-77
2024/01/31 04:55:53;;;;;;;;;30.67;28.00;;;;;;;;5058131;28;47304;-77
2024/01/31 04:58:18;;;;;;;;;26.67;23.67;;;;;;;;5074979;28;45242;-77
2024/01/31 05:00:44;;;;;;;;;29.00;27.00;;;;;;;;5079772;28;45365;-77
2024/01/31 05:03:09;;;;;;;;;29.33;29.00;;;;;;;;5082310;27;45309;-77
2024/01/31 05:05:34;;;;;;;;;30.33;30.00;;;;;;;;5080354;28;45825;-76
2024/01/31 05:07:59;;;;;;;;;29.67;25.00;;;;;;;;5080926;28;45344;-77
2024/01/31 05:10:25;;;;;;;;;34.00;29.33;;;;;;;;5081331;27;45498;-77
2024/01/31 05:12:50;;;;;;;;;29.67;27.33;;;;;;;;5082416;28;45503;-77
2024/01/31 05:15:15;;;;;;;;;27.33;26.67;;;;;;;;5082076;27;45274;-78
2024/01/31 05:17:40;;;;;;;;;28.33;28.33;;;;;;;;5067597;27;45346;-77
2024/01/31 05:20:06;;;;;;;;;30.00;28.00;;;;;;;;5060943;28;45252;-77
2024/01/31 05:22:31;;;;;;;;;26.00;25.00;;;;;;;;5060011;28;45252;-78
2024/01/31 05:24:57;;;;;;;;;30.00;27.67;;;;;;;;5060404;28;47306;-78
2024/01/31 05:27:22;;;;;;;;;29.67;27.33;;;;;;;;5060950;28;45425;-77
2024/01/31 05:29:47;;;;;;;;;29.33;26.67;;;;;;;;5061181;28;45219;-78
2024/01/31 05:32:12;;;;;;;;;23.67;23.33;;;;;;;;5061824;28;45155;-77
2024/01/31 05:34:40;;;;;;;;;25.00;24.00;;;;;;;;5060255;28;46217;-77
2024/01/31 05:37:05;;;;;;;;;18.33;18.33;;;;;;;;5061566;28;46229;-77
2024/01/31 05:39:30;;;;;;;;;21.33;21.33;;;;;;;;5060055;28;45441;-77
2024/01/31 05:41:56;;;;;;;;;23.00;22.00;;;;;;;;5060025;28;45393;-78
2024/01/31 05:44:21;;;;;;;;;23.00;23.00;;;;;;;;5060574;28;45476;-77
2024/01/31 05:46:47;;;;;;;;;24.67;20.33;;;;;;;;5059031;28;45432;-77
2024/01/31 05:49:13;;;;;;;;;21.67;21.00;;;;;;;;5061347;28;45343;-77
2024/01/31 05:51:38;;;;;;;;;21.33;20.33;;;;;;;;5061351;28;45366;-77
2024/01/31 05:54:03;;;;;;;;;27.00;23.00;;;;;;;;5060058;28;47318;-78
2024/01/31 05:56:29;;;;;;;;;27.67;26.67;;;;;;;;5060514;28;47479;-78
2024/01/31 05:58:54;;;;;;;;;24.67;22.67;;;;;;;;5063164;28;45314;-77
2024/01/31 06:01:19;;;;;;;;;28.00;25.00;;;;;;;;5060074;28;45291;-77
2024/01/31 06:03:44;;;;;;;;;26.00;23.00;;;;;;;;5059363;28;45390;-77
2024/01/31 06:06:09;;;;;;;;;23.33;21.33;;;;;;;;5058481;28;48186;-77
2024/01/31 06:08:34;;;;;;;;;31.33;26.67;;;;;;;;5061181;28;45434;-78
2024/01/31 06:11:04;;;;;;;;;22.67;22.33;;;;;;;;5059280;28;45476;-78
2024/01/31 06:13:30;;;;;;;;;27.00;26.67;;;;;;;;5060078;28;45296;-77
2024/01/31 06:15:55;;;;;;;;;27.67;26.67;;;;;;;;5060496;28;46303;-77
2024/01/31 06:18:22;;;;;;;;;22.67;22.00;;;;;;;;5060957;28;45367;-77
2024/01/31 06:20:47;;;;;;;;;31.00;30.00;;;;;;;;5060972;28;45280;-77
2024/01/31 06:23:12;;;;;;;;;26.00;22.00;;;;;;;;5060537;28;45347;-76
2024/01/31 06:25:38;;;;;;;;;21.67;21.00;;;;;;;;5061030;28;45351;-77
2024/01/31 06:28:03;;;;;;;;;24.67;24.67;;;;;;;;5058235;28;45333;-77
2024/01/31 06:30:33;;;;;;;;;25.00;23.33;;;;;;;;5059606;28;45318;-77
2024/01/31 06:33:06;;;;;;;;;19.33;19.33;;;;;;;;5060400;28;45256;-77
2024/01/31 06:35:31;;;;;;;;;23.00;21.67;;;;;;;;5060507;28;45491;-77
2024/01/31 06:37:56;;;;;;;;;21.33;20.00;;;;;;;;5060633;28;45346;-77
2024/01/31 06:40:22;;;;;;;;;21.33;20.00;;;;;;;;5059515;28;45247;-76
2024/01/31 06:42:48;;;;;;;;;14.00;14.00;;;;;;;;5060646;28;45369;-77
2024/01/31 06:45:14;;;;;;;;;21.67;19.67;;;;;;;;5059275;28;45272;-77
2024/01/31 06:47:39;;;;;;;;;20.33;16.67;;;;;;;;5059506;28;45251;-77
2024/01/31 06:50:05;;;;;;;;;20.00;19.33;;;;;;;;5058012;28;45280;-77
2024/01/31 06:52:30;;;;;;;;;18.67;18.67;;;;;;;;5060420;28;45496;-77
2024/01/31 06:54:55;;;;;;;;;19.33;18.00;;;;;;;;5058893;28;46973;-77
2024/01/31 06:57:21;;;;;;;;;21.33;19.33;;;;;;;;5068102;28;45382;-76
2024/01/31 06:59:46;;;;;;;;;16.00;14.00;;;;;;;;5076409;28;45365;-77
2024/01/31 07:02:11;;;;;;;;;21.00;19.33;;;;;;;;5058729;28;47460;-75
2024/01/31 07:04:37;;;;;;;;;15.33;15.33;;;;;;;;5058123;28;45398;-76
2024/01/31 07:07:02;;;;;;;;;17.33;13.00;;;;;;;;5059229;28;45422;-76
2024/01/31 07:09:29;;;;;;;;;13.67;13.67;;;;;;;;5057756;28;45471;-77
2024/01/31 07:11:54;;;;;;;;;15.67;15.00;;;;;;;;5060219;28;45301;-77
2024/01/31 07:14:19;;;;;;;;;18.00;17.00;;;;;;;;5059845;28;45526;-76
2024/01/31 07:16:44;;;;;;;;;13.00;13.00;;;;;;;;5060128;28;45426;-75
2024/01/31 07:19:10;;;;;;;;;12.00;12.00;;;;;;;;5060267;28;45307;-76
2024/01/31 07:21:35;;;;;;;;;13.00;13.00;;;;;;;;5058444;28;45394;-76
2024/01/31 07:24:00;;;;;;;;;14.00;12.67;;;;;;;;5057257;28;47159;-76
2024/01/31 07:26:28;;;;;;;;;13.67;11.33;;;;;;;;5059352;28;45447;-77
2024/01/31 07:28:53;;;;;;;;;11.67;11.67;;;;;;;;5060101;28;45281;-76
2024/01/31 07:31:18;;;;;;;;;15.33;13.33;;;;;;;;5059596;28;45229;-76
2024/01/31 07:33:44;;;;;;;;;14.00;11.00;;;;;;;;5059736;28;45365;-76
2024/01/31 07:36:09;;;;;;;;;12.00;10.00;;;;;;;;5058527;28;45357;-76
2024/01/31 07:38:34;;;;;;;;;9.67;9.67;;;;;;;;5051782;28;45319;-75
2024/01/31 07:41:00;;;;;;;;;11.00;10.00;;;;;;;;5048268;28;46181;-75
2024/01/31 07:43:25;;;;;;;;;10.33;9.67;;;;;;;;5059109;28;46139;-76
2024/01/31 07:45:50;;;;;;;;;11.67;10.00;;;;;;;;5057720;28;45285;-76
2024/01/31 07:48:15;;;;;;;;;13.00;10.33;;;;;;;;5059356;28;45633;-76
2024/01/31 07:50:41;;;;;;;;;10.67;10.67;;;;;;;;5058925;28;45279;-76
2024/01/31 07:53:06;;;;;;;;;10.67;10.00;;;;;;;;5059787;28;45468;-76
2024/01/31 07:55:31;;;;;;;;;13.67;12.00;;;;;;;;5061722;28;45382;-75
2024/01/31 07:57:56;;;;;;;;;41.00;37.00;;;;;;;;5069116;28;45364;-75
2024/01/31 08:00:21;;;;;;;;;30.67;29.67;;;;;;;;5067795;28;45348;-75
2024/01/31 08:02:47;;;;;;;;;25.33;22.33;;;;;;;;5065772;28;47831;-75
2024/01/31 08:05:12;;;;;;;;;28.67;26.33;;;;;;;;5066573;28;45273;-76
2024/01/31 08:07:37;;;;;;;;;25.00;25.00;;;;;;;;5064677;28;45311;-75
2024/01/31 08:10:03;;;;;;;;;31.00;29.67;;;;;;;;5062934;28;46941;-75
2024/01/31 08:12:28;;;;;;;;;34.25;34.00;;;;;;;;5062571;28;45365;-74
2024/01/31 08:14:53;;;;;;;;;50.00;41.50;;;;;;;;5059817;28;45321;-77
2024/01/31 08:17:18;;;;;;;;;57.50;46.50;;;;;;;;5064887;28;45295;-78
2024/01/31 08:19:43;;;;;;;;;55.75;45.75;;;;;;;;5063829;28;45518;-76
2024/01/31 08:22:09;;;;;;;;;58.50;46.00;;;;;;;;5065044;28;45546;-76
2024/01/31 08:24:34;;;;;;;;;48.50;40.25;;;;;;;;5061972;28;45342;-77
2024/01/31 08:26:59;;;;;;;;;50.75;43.75;;;;;;;;5060598;28;45283;-75
2024/01/31 08:29:24;;;;;;;;;51.25;43.00;;;;;;;;5062456;28;45338;-76
2024/01/31 08:31:49;;;;;;;;;52.75;43.00;;;;;;;;5063169;28;45566;-76
2024/01/31 08:34:15;;;;;;;;;50.00;40.25;;;;;;;;5065538;28;45311;-76
2024/01/31 08:36:40;;;;;;;;;40.50;36.00;;;;;;;;5065433;28;45256;-75
2024/01/31 08:39:08;;;;;;;;;32.67;30.00;;;;;;;;5066395;28;45214;-75
2024/01/31 08:41:33;;;;;;;;;34.00;29.33;;;;;;;;5063998;28;47665;-76
2024/01/31 08:43:58;;;;;;;;;36.33;31.00;;;;;;;;5066932;28;45355;-76
2024/01/31 08:46:26;;;;;;;;;41.75;37.25;;;;;;;;5064916;28;45448;-75
2024/01/31 08:48:51;;;;;;;;;48.25;38.25;;;;;;;;5059359;28;45878;-76
2024/01/31 08:51:16;;;;;;;;;41.50;37.75;;;;;;;;5060187;28;46013;-76
2024/01/31 08:53:42;;;;;;;;;40.50;35.75;;;;;;;;5060626;28;45381;-77
2024/01/31 08:56:08;;;;;;;;;51.00;42.75;;;;;;;;5062215;28;45360;-78
2024/01/31 08:58:33;;;;;;;;;43.75;38.50;;;;;;;;5066408;28;47600;-77
2024/01/31 09:00:59;;;;;;;;;40.50;37.00;;;;;;;;5060172;28;45504;-77
2024/01/31 09:03:24;;;;;;;;;49.50;40.00;;;;;;;;5060514;28;45686;-76
2024/01/31 09:05:49;;;;;;;;;42.25;34.25;;;;;;;;5061878;28;45442;-77
2024/01/31 09:08:15;;;;;;;;;46.00;36.75;;;;;;;;5060634;28;46322;-78
2024/01/31 09:10:40;;;;;;;;;40.75;34.25;;;;;;;;5061394;28;45408;-78
2024/01/31 09:13:05;;;;;;;;;40.25;35.75;;;;;;;;5063994;28;45291;-78
2024/01/31 09:15:30;;;;;;;;;40.00;36.25;;;;;;;;5062738;28;45511;-77
2024/01/31 09:17:55;;;;;;;;;40.00;36.00;;;;;;;;5062127;28;45826;-76
2024/01/31 09:20:20;;;;;;;;;31.25;27.25;;;;;;;;5063973;28;45550;-79
2024/01/31 09:22:46;;;;;;;;;38.75;35.75;;;;;;;;5063141;28;45636;-76
2024/01/31 09:25:11;;;;;;;;;43.00;36.00;;;;;;;;5063929;28;45232;-77
2024/01/31 09:27:36;;;;;;;;;34.50;33.00;;;;;;;;5062689;28;46128;-77
2024/01/31 09:30:03;;;;;;;;;37.75;35.25;;;;;;;;5062639;28;46341;-77
2024/01/31 09:32:28;;;;;;;;;37.50;33.75;;;;;;;;5063581;28;45266;-76
2024/01/31 09:34:53;;;;;;;;;42.75;38.00;;;;;;;;5062517;28;45487;-76
2024/01/31 09:37:19;;;;;;;;;42.00;34.50;;;;;;;;5065069;28;45050;-77
2024/01/31 09:39:44;;;;;;;;;31.25;30.75;;;;;;;;5063331;28;45555;-77
2024/01/31 09:42:10;;;;;;;;;38.00;36.00;;;;;;;;5063920;28;45354;-76
2024/01/31 09:44:35;;;;;;;;;39.67;35.67;;;;;;;;5045958;28;45666;-78
2024/01/31 09:47:00;;;;;;;;;38.67;34.67;;;;;;;;5061025;28;45643;-78
2024/01/31 09:49:25;;;;;;;;;36.33;33.00;;;;;;;;5059767;28;45938;-77
2024/01/31 09:51:58;;;;;;;;;42.50;37.50;;;;;;;;5058994;28;46017;-78
2024/01/31 09:54:24;;;;;;;;;44.50;38.25;;;;;;;;5059307;28;45216;-77
2024/01/31 09:56:49;;;;;;;;;45.25;38.00;;;;;;;;5064363;28;45303;-78
2024/01/31 09:59:14;;;;;;;;;48.67;38.67;;;;;;;;5082245;27;45395;-77
2024/01/31 10:01:40;;;;;;;;;43.50;34.75;;;;;;;;5071414;28;45429;-77
2024/01/31 10:04:05;;;;;;;;;41.67;35.00;;;;;;;;5060744;28;45279;-78
2024/01/31 10:06:30;;;;;;;;;40.67;34.67;;;;;;;;5048194;28;45500;-79
2024/01/31 10:08:56;;;;;;;;;37.00;33.00;;;;;;;;5061565;28;47700;-77
2024/01/31 10:11:21;;;;;;;;;38.00;34.33;;;;;;;;5062087;28;45304;-78
2024/01/31 10:13:46;;;;;;;;;32.33;29.33;;;;;;;;5063644;28;45383;-77
2024/01/31 10:16:11;;;;;;;;;30.00;27.67;;;;;;;;5062839;28;45377;-77
2024/01/31 10:18:38;;;;;;;;;22.33;20.00;;;;;;;;5062275;28;45436;-77
2024/01/31 10:21:03;;;;;;;;;16.00;14.00;;;;;;;;5061732;28;45393;-78
2024/01/31 10:23:29;;;;;;;;;11.00;9.33;;;;;;;;5059959;28;45460;-78
2024/01/31 10:25:54;;;;;;;;;2.00;1.00;;;;;;;;5062046;28;45462;-78
2024/01/31 10:28:20;;;;;;;;;10.33;7.67;;;;;;;;5059047;28;47079;-77
2024/01/31 10:30:46;;;;;;;;;8.67;7.00;;;;;;;;5061022;28;45228;-79
2024/01/31 10:33:12;;;;;;;;;6.67;6.67;;;;;;;;5061817;28;45718;-79
2024/01/31 10:35:37;;;;;;;;;8.67;8.00;;;;;;;;5059617;28;46261;-79
2024/01/31 10:38:02;;;;;;;;;8.33;8.00;;;;;;;;5062458;28;45858;-78
2024/01/31 10:40:28;;;;;;;;;9.67;9.67;;;;;;;;5065419;28;45232;-78
2024/01/31 10:42:54;;;;;;;;;6.00;6.00;;;;;;;;5060612;28;45344;-78
2024/01/31 10:45:19;;;;;;;;;5.00;5.00;;;;;;;;5064730;28;45214;-79
2024/01/31 10:47:45;;;;;;;;;4.67;4.67;;;;;;;;5063855;28;45232;-79
2024/01/31 10:50:10;;;;;;;;;8.00;7.00;;;;;;;;5062938;28;45279;-79
2024/01/31 10:52:37;;;;;;;;;8.33;7.67;;;;;;;;5060215;28;45481;-79
2024/01/31 10:55:03;;;;;;;;;9.67;9.00;;;;;;;;5062035;28;45351;-78
2024/01/31 10:57:29;;;;;;;;;7.00;7.00;;;;;;;;5072785;28;46009;-79
2024/01/31 10:59:58;;;;;;;;;7.67;7.67;;;;;;;;5077362;27;45368;-79
2024/01/31 11:02:28;;;;;;;;;6.33;6.00;;;;;;;;5061134;28;45251;-79
2024/01/31 11:04:56;;;;;;;;;8.00;7.00;;;;;;;;5067313;28;45706;-78
2024/01/31 11:07:21;;;;;;;;;7.67;6.67;;;;;;;;5067848;28;45893;-77
2024/01/31 11:09:47;;;;;;;;;8.00;8.00;;;;;;;;5063144;28;45201;-76
2024/01/31 11:12:15;;;;;;;;;12.00;9.00;;;;;;;;5064689;28;45268;-76
2024/01/31 11:14:42;;;;;;;;;6.67;6.00;;;;;;;;5049271;28;45425;-78
2024/01/31 11:17:08;;;;;;;;;10.00;8.67;;;;;;;;5057868;28;47052;-78
2024/01/31 11:19:48;;;;;;;;;5.67;5.67;;;;;;;;5063041;28;45708;-79
2024/01/31 11:22:14;;;;;;;;;8.67;8.67;;;;;;;;5062917;28;45386;-78
2024/01/31 11:24:43;;;;;;;;;7.00;6.33;;;;;;;;5060071;28;46383;-77
2024/01/31 11:27:08;;;;;;;;;10.33;8.00;;;;;;;;5061980;28;46399;-78
2024/01/31 11:29:33;;;;;;;;;10.00;7.00;;;;;;;;5061099;28;45360;-79
2024/01/31 11:31:59;;;;;;;;;6.67;6.67;;;;;;;;5068668;28;45961;-78
2024/01/31 11:34:25;;;;;;;;;8.33;8.33;;;;;;;;5064154;28;45393;-79
2024/01/31 11:36:50;;;;;;;;;10.67;10.33;;;;;;;;5061844;28;45383;-78
2024/01/31 11:39:15;;;;;;;;;13.33;10.00;;;;;;;;5065425;28;45342;-78
2024/01/31 11:41:41;;;;;;;;;11.33;9.67;;;;;;;;5063502;28;45590;-78
2024/01/31 11:44:06;;;;;;;;;9.33;9.33;;;;;;;;5064376;28;47089;-79
2024/01/31 11:46:31;;;;;;;;;12.33;10.67;;;;;;;;5063288;28;46264;-77
2024/01/31 11:48:56;;;;;;;;;15.00;12.33;;;;;;;;5059227;28;45334;-78
2024/01/31 11:51:21;;;;;;;;;15.67;12.33;;;;;;;;5061283;28;45572;-79
2024/01/31 11:53:47;;;;;;;;;12.00;12.00;;;;;;;;5061975;28;45375;-77
2024/01/31 11:56:12;;;;;;;;;14.67;13.67;;;;;;;;5061812;28;45547;-77
2024/01/31 11:58:38;;;;;;;;;12.67;12.33;;;;;;;;5066153;28;45382;-78
2024/01/31 12:01:04;;;;;;;;;12.67;10.67;;;;;;;;5066668;28;45315;-78
2024/01/31 12:03:30;;;;;;;;;16.00;15.00;;;;;;;;5062658;28;45332;-78
2024/01/31 12:05:56;;;;;;;;;17.33;15.33;;;;;;;;5062121;28;45489;-75
2024/01/31 12:08:26;;;;;;;;;15.33;14.67;;;;;;;;5063385;28;45745;-75
2024/01/31 12:10:52;;;;;;;;;17.00;17.00;;;;;;;;5058307;28;45693;-77
2024/01/31 12:13:17;;;;;;;;;15.33;14.00;;;;;;;;5069330;28;45465;-77
2024/01/31 12:15:42;;;;;;;;;15.67;15.67;;;;;;;;5064488;28;45314;-77
2024/01/31 12:18:08;;;;;;;;;18.00;14.67;;;;;;;;5057455;28;45307;-76
2024/01/31 12:20:34;;;;;;;;;15.33;14.33;;;;;;;;5051984;28;45427;-75
2024/01/31 12:22:59;;;;;;;;;17.67;15.67;;;;;;;;5057300;28;46525;-75
2024/01/31 12:25:24;;;;;;;;;18.33;16.33;;;;;;;;5051100;28;45351;-75
2024/01/31 12:27:49;;;;;;;;;18.67;18.67;;;;;;;;5069904;28;45130;-77
2024/01/31 12:30:15;;;;;;;;;23.67;21.00;;;;;;;;5065736;28;45619;-78
2024/01/31 12:32:41;;;;;;;;;18.33;18.00;;;;;;;;5065739;28;45334;-78
2024/01/31 12:35:06;;;;;;;;;17.67;17.00;;;;;;;;5067334;28;45324;-77
2024/01/31 12:37:31;;;;;;;;;24.33;22.00;;;;;;;;5069637;28;45460;-77
2024/01/31 12:39:56;;;;;;;;;20.00;18.67;;;;;;;;5071391;28;45271;-78
2024/01/31 12:42:22;;;;;;;;;24.00;21.33;;;;;;;;5073435;28;45350;-78
2024/01/31 12:44:47;;;;;;;;;24.67;22.33;;;;;;;;5067893;28;46064;-78
2024/01/31 12:47:12;;;;;;;;;21.67;19.33;;;;;;;;5072972;28;45311;-78
2024/01/31 12:49:39;;;;;;;;;26.33;22.00;;;;;;;;5073983;28;45230;-78
2024/01/31 12:52:07;;;;;;;;;25.67;25.67;;;;;;;;5071040;28;45484;-78
2024/01/31 12:54:33;;;;;;;;;24.67;21.67;;;;;;;;5070098;28;45244;-77
2024/01/31 12:56:58;;;;;;;;;27.00;26.00;;;;;;;;5069859;28;45434;-78
2024/01/31 12:59:23;;;;;;;;;25.00;24.33;;;;;;;;5072866;28;45322;-78
2024/01/31 13:01:49;;;;;;;;;26.33;24.67;;;;;;;;5065236;28;45236;-78
2024/01/31 13:04:14;;;;;;;;;26.67;25.67;;;;;;;;5061489;28;47271;-77
2024/01/31 13:06:39;;;;;;;;;24.00;22.00;;;;;;;;5063039;28;45308;-78
2024/01/31 13:09:04;;;;;;;;;22.00;19.33;;;;;;;;5063168;28;45261;-78
2024/01/31 13:11:29;;;;;;;;;25.67;25.33;;;;;;;;5061752;28;45320;-78
2024/01/31 13:13:55;;;;;;;;;20.67;18.33;;;;;;;;5059869;28;48272;-78
2024/01/31 13:16:20;;;;;;;;;27.00;24.67;;;;;;;;5060329;28;45235;-78
2024/01/31 13:18:45;;;;;;;;;25.67;22.67;;;;;;;;5061474;28;45212;-77
2024/01/31 13:21:10;;;;;;;;;20.67;20.00;;;;;;;;5059959;28;45855;-77
2024/01/31 13:23:36;;;;;;;;;23.67;22.00;;;;;;;;5061520;28;46339;-77
2024/01/31 13:26:01;;;;;;;;;25.33;23.00;;;;;;;;5061588;28;45341;-76
2024/01/31 13:28:26;;;;;;;;;20.67;19.33;;;;;;;;5061512;28;45254;-77
2024/01/31 13:30:51;;;;;;;;;20.00;17.67;;;;;;;;5059968;28;46210;-77
2024/01/31 13:33:16;;;;;;;;;20.67;18.00;;;;;;;;5061312;28;46129;-77
2024/01/31 13:35:41;;;;;;;;;22.00;20.00;;;;;;;;5055675;28;45350;-77
2024/01/31 13:38:07;;;;;;;;;17.67;17.00;;;;;;;;5060941;28;45373;-77
2024/01/31 13:40:32;;;;;;;;;20.33;20.33;;;;;;;;5059525;28;45559;-77
2024/01/31 13:42:57;;;;;;;;;21.67;20.33;;;;;;;;5059613;28;48169;-77
2024/01/31 13:45:22;;;;;;;;;27.00;22.33;;;;;;;;5061118;28;45221;-78
2024/01/31 13:47:48;;;;;;;;;25.33;22.67;;;;;;;;5061463;28;45295;-78
2024/01/31 13:50:13;;;;;;;;;17.33;16.00;;;;;;;;5056023;28;45384;-78
2024/01/31 13:52:39;;;;;;;;;23.00;22.67;;;;;;;;5058040;28;45373;-78
2024/01/31 13:55:04;;;;;;;;;17.00;16.67;;;;;;;;5059803;28;45561;-78
2024/01/31 13:57:29;;;;;;;;;17.67;16.33;;;;;;;;5061886;28;45299;-78
2024/01/31 13:59:56;;;;;;;;;18.33;16.67;;;;;;;;5059812;28;45524;-79
2024/01/31 14:02:21;;;;;;;;;15.00;14.00;;;;;;;;5059681;28;45930;-77
2024/01/31 14:04:47;;;;;;;;;18.00;17.00;;;;;;;;5059452;28;45281;-77
2024/01/31 14:07:12;;;;;;;;;18.33;16.67;;;;;;;;5060249;28;45470;-77
2024/01/31 14:09:37;;;;;;;;;18.00;18.00;;;;;;;;5059851;28;45445;-77